Terminal Aerodrome Forecast
Issued by NWS

Home | Current Version | Previous Version | Text Only | Print | Product List | Glossary On
Versions: 1 2 3 4 5 6 7 8 9 10 11 12 13 14 15
000
FTUS42 KTBW 290800 AAA
TAFPIE
TAF AMD
KPIE 290825Z 2908/3006 VRB03KT 2SM BR SCT007 BKN020
      TEMPO 2908/2912 1/2SM FG BKN005
     FM291300 17004KT 4SM BR SCT005 BKN015
     FM291500 19010KT P6SM BKN025 BKN250
     FM291900 20010KT P6SM BKN050 BKN250
     FM300100 VRB05KT 6SM BR FEW010 SCT025 BKN050=

USA.gov is the U.S. government's official web portal to all federal, state and local government web resources and services.